createdAt,value
2022-08-22T00:02:55.136Z,17.65
2022-08-22T00:03:08.205Z,17.71
2022-08-22T00:06:27.006Z,17.83
2022-08-22T00:09:33.389Z,17.81
2022-08-22T00:13:12.770Z,17.86
2022-08-22T00:16:33.458Z,17.85
2022-08-22T00:19:58.179Z,17.76
2022-08-22T00:23:11.692Z,17.76
2022-08-22T00:26:22.273Z,17.97
2022-08-22T00:29:43.558Z,17.95
2022-08-22T00:33:03.062Z,18.02
2022-08-22T00:36:16.606Z,18.05
2022-08-22T00:39:24.616Z,17.95
2022-08-22T00:42:40.550Z,17.89
2022-08-22T00:45:58.507Z,17.99
2022-08-22T00:49:30.399Z,17.91
2022-08-22T00:52:48.248Z,17.71
2022-08-22T00:55:52.143Z,17.76
2022-08-22T00:59:22.910Z,17.77
2022-08-22T01:02:28.870Z,17.92
2022-08-22T01:05:53.091Z,18.01
2022-08-22T01:09:33.333Z,17.87
2022-08-22T01:12:53.509Z,17.93
2022-08-22T01:16:29.317Z,17.88
2022-08-22T01:19:41.266Z,17.90
2022-08-22T01:22:58.783Z,17.92
2022-08-22T01:26:39.655Z,17.92
2022-08-22T01:30:12.131Z,17.98
2022-08-22T01:33:37.706Z,17.99
2022-08-22T01:36:48.943Z,17.90
2022-08-22T01:40:10.462Z,17.70
2022-08-22T01:43:59.913Z,17.79
2022-08-22T01:47:13.993Z,17.66
2022-08-22T01:50:29.236Z,17.62
2022-08-22T01:53:50.799Z,17.64
2022-08-22T01:57:02.466Z,17.56
2022-08-22T02:00:18.387Z,17.62
2022-08-22T02:03:25.051Z,17.65
2022-08-22T02:07:11.082Z,17.52
2022-08-22T02:10:52.072Z,17.48
2022-08-22T02:14:03.483Z,17.47
2022-08-22T02:17:31.640Z,17.43
2022-08-22T02:20:56.756Z,17.36
2022-08-22T02:24:19.447Z,17.42
2022-08-22T02:27:45.091Z,17.55
2022-08-22T02:30:55.198Z,17.46
2022-08-22T02:34:01.413Z,17.38
2022-08-22T02:37:25.704Z,17.42
2022-08-22T02:40:37.694Z,17.34
2022-08-22T02:43:43.837Z,17.54
2022-08-22T02:47:09.182Z,17.61
2022-08-22T02:50:25.739Z,17.71
2022-08-22T02:53:32.656Z,17.60
2022-08-22T02:56:43.330Z,17.53
2022-08-22T03:00:31.869Z,17.58
2022-08-22T03:03:41.177Z,17.60
2022-08-22T03:07:07.535Z,17.59
2022-08-22T03:10:13.517Z,17.53
2022-08-22T03:13:45.869Z,17.66
2022-08-22T03:17:01.025Z,17.62
2022-08-22T03:20:07.662Z,17.70
2022-08-22T03:23:19.333Z,17.73
2022-08-22T03:26:31.986Z,17.77
2022-08-22T03:29:46.831Z,17.82
2022-08-22T03:33:27.927Z,17.71
2022-08-22T03:36:31.688Z,17.70
2022-08-22T03:40:20.334Z,17.75
2022-08-22T03:43:59.415Z,17.77
2022-08-22T03:47:08.179Z,17.78
2022-08-22T03:50:48.262Z,17.85
2022-08-22T03:54:08.720Z,17.92
2022-08-22T03:57:54.686Z,17.84
2022-08-22T04:01:07.959Z,17.96
2022-08-22T04:04:10.820Z,17.84
2022-08-22T04:07:36.288Z,17.89
2022-08-22T04:10:58.626Z,17.98
2022-08-22T04:14:26.066Z,17.96
2022-08-22T04:17:50.874Z,17.99
2022-08-22T04:21:22.816Z,17.97
2022-08-22T04:24:36.630Z,17.95
2022-08-22T04:27:48.455Z,17.90
2022-08-22T04:31:00.986Z,17.78
2022-08-22T04:34:12.910Z,17.84
2022-08-22T04:37:44.048Z,17.86
2022-08-22T04:41:03.944Z,17.74
2022-08-22T04:44:14.222Z,17.65
2022-08-22T04:47:31.692Z,17.80
2022-08-22T04:51:01.188Z,17.79
2022-08-22T04:54:31.872Z,17.75
2022-08-22T04:58:26.404Z,17.70
2022-08-22T05:01:56.126Z,17.80
2022-08-22T05:05:19.844Z,17.67
2022-08-22T05:08:27.439Z,17.73
2022-08-22T05:11:34.132Z,17.73
2022-08-22T05:15:02.489Z,17.67
2022-08-22T05:18:17.364Z,17.75
2022-08-22T05:21:27.148Z,17.77
2022-08-22T05:24:38.888Z,17.77
2022-08-22T05:28:02.599Z,17.70
2022-08-22T05:31:12.424Z,17.74
2022-08-22T05:34:21.856Z,17.83
2022-08-22T05:37:31.180Z,17.91
2022-08-22T05:40:37.914Z,17.98
2022-08-22T05:43:44.243Z,17.99
2022-08-22T05:47:15.679Z,17.91
2022-08-22T05:50:28.546Z,17.93
2022-08-22T05:53:45.759Z,18.01
2022-08-22T05:56:55.994Z,18.02
2022-08-22T06:00:11.843Z,17.92
2022-08-22T06:03:30.201Z,17.98
2022-08-22T06:06:40.950Z,18.05
2022-08-22T06:10:09.574Z,18.12
2022-08-22T06:13:35.899Z,18.17
2022-08-22T06:16:47.638Z,18.27
2022-08-22T06:19:53.664Z,18.21
2022-08-22T06:23:01.017Z,18.33
2022-08-22T06:26:05.543Z,18.27
2022-08-22T06:29:37.949Z,18.27
2022-08-22T06:33:00.162Z,18.33
2022-08-22T06:36:32.744Z,18.36
2022-08-22T06:39:39.351Z,18.39
2022-08-22T06:42:47.561Z,18.43
2022-08-22T06:45:53.108Z,18.41
2022-08-22T06:48:57.991Z,18.41
2022-08-22T06:52:11.901Z,18.53
2022-08-22T06:55:15.597Z,18.63
2022-08-22T06:58:33.974Z,18.57
2022-08-22T07:01:48.676Z,18.63
2022-08-22T07:04:51.830Z,18.56
2022-08-22T07:07:57.737Z,18.73
2022-08-22T07:11:26.104Z,18.84
2022-08-22T07:14:34.530Z,18.92
2022-08-22T07:17:46.757Z,18.96
2022-08-22T07:20:57.284Z,18.99
2022-08-22T07:24:02.501Z,18.82
2022-08-22T07:27:37.597Z,18.88
2022-08-22T07:30:52.938Z,18.89
2022-08-22T07:34:19.406Z,18.97
2022-08-22T07:37:43.827Z,19.00
2022-08-22T07:41:01.880Z,19.03
2022-08-22T07:44:19.437Z,19.08
2022-08-22T07:47:27.463Z,19.09
2022-08-22T07:51:05.941Z,19.06
2022-08-22T07:54:13.542Z,19.12
2022-08-22T07:57:23.831Z,19.28
2022-08-22T08:00:29.946Z,19.21
2022-08-22T08:03:33.165Z,19.47
2022-08-22T08:06:36.966Z,19.61
2022-08-22T08:09:46.052Z,19.58
2022-08-22T08:13:01.822Z,19.58
2022-08-22T08:16:09.743Z,19.45
2022-08-22T08:19:14.830Z,19.29
2022-08-22T08:22:23.804Z,19.48
2022-08-22T08:25:31.180Z,19.75
2022-08-22T08:28:41.358Z,20.06
2022-08-22T08:31:44.983Z,20.07
2022-08-22T08:34:48.480Z,20.24
2022-08-22T08:37:59.371Z,20.41
2022-08-22T08:41:27.298Z,20.49
2022-08-22T08:45:16.089Z,20.46
2022-08-22T08:48:43.297Z,20.67
2022-08-22T08:52:00.907Z,20.68
2022-08-22T08:55:21.807Z,20.73
2022-08-22T08:58:39.810Z,20.84
2022-08-22T09:02:09.209Z,21.08
2022-08-22T09:05:35.125Z,21.34
2022-08-22T09:08:47.738Z,21.24
2022-08-22T09:12:11.263Z,21.20
2022-08-22T09:15:21.519Z,20.93
2022-08-22T09:18:45.045Z,21.21
2022-08-22T09:22:14.260Z,21.28
2022-08-22T09:25:38.414Z,21.18
2022-08-22T09:28:56.986Z,21.19
2022-08-22T09:32:19.154Z,21.43
2022-08-22T09:35:34.454Z,21.62
2022-08-22T09:38:57.014Z,21.90
2022-08-22T09:42:12.640Z,22.05
2022-08-22T09:45:33.816Z,22.35
2022-08-22T09:49:01.150Z,22.45
2022-08-22T09:52:36.920Z,22.41
2022-08-22T09:55:53.200Z,22.55
2022-08-22T09:59:09.802Z,22.46
2022-08-22T10:02:27.913Z,22.45
2022-08-22T10:06:00.588Z,22.57
2022-08-22T10:09:31.296Z,22.61
2022-08-22T10:12:49.926Z,23.05
2022-08-22T10:16:26.720Z,23.18
2022-08-22T10:19:41.815Z,23.38
2022-08-22T10:23:21.601Z,23.51
2022-08-22T10:26:36.508Z,23.39
2022-08-22T10:30:33.723Z,23.41
2022-08-22T10:33:52.256Z,23.41
2022-08-22T10:37:23.556Z,23.19
2022-08-22T10:40:34.512Z,22.87
2022-08-22T10:44:00.867Z,22.77
2022-08-22T10:47:15.852Z,22.62
2022-08-22T10:50:31.214Z,22.69
2022-08-22T10:53:56.015Z,22.64
2022-08-22T10:57:24.364Z,22.64
2022-08-22T11:00:27.242Z,22.70
2022-08-22T11:04:07.709Z,22.72
2022-08-22T11:07:44.605Z,22.47
2022-08-22T11:10:52.122Z,22.40
2022-08-22T11:14:03.168Z,22.20
2022-08-22T11:17:40.686Z,21.90
2022-08-22T11:21:11.260Z,21.71
2022-08-22T11:24:35.564Z,21.71
2022-08-22T11:28:12.739Z,21.69
2022-08-22T11:31:51.571Z,21.74
2022-08-22T11:35:09.048Z,21.54
2022-08-22T11:38:28.038Z,21.56
2022-08-22T11:42:04.251Z,21.56
2022-08-22T11:45:08.511Z,21.87
2022-08-22T11:48:23.969Z,22.03
2022-08-22T11:51:58.091Z,21.93
2022-08-22T11:55:17.115Z,21.85
2022-08-22T11:58:29.259Z,21.82
2022-08-22T12:02:05.808Z,21.75
2022-08-22T12:05:24.321Z,21.81
2022-08-22T12:08:35.520Z,21.74
2022-08-22T12:12:01.532Z,21.59
2022-08-22T12:15:12.034Z,21.41
2022-08-22T12:18:26.938Z,21.40
2022-08-22T12:22:07.378Z,21.36
2022-08-22T12:25:32.020Z,21.29
2022-08-22T12:29:00.566Z,21.23
2022-08-22T12:32:33.969Z,21.17
2022-08-22T12:35:54.838Z,21.05
2022-08-22T12:39:24.665Z,21.05
2022-08-22T12:42:49.175Z,21.33
2022-08-22T12:46:17.400Z,21.36
2022-08-22T12:49:27.341Z,21.27
2022-08-22T12:52:51.904Z,21.38
2022-08-22T12:56:12.474Z,21.38
2022-08-22T12:59:27.878Z,21.48
2022-08-22T13:02:36.163Z,21.64
2022-08-22T13:05:46.048Z,21.71
2022-08-22T13:08:56.036Z,21.60
2022-08-22T13:12:25.406Z,21.46
2022-08-22T13:15:45.883Z,21.51
2022-08-22T13:19:07.796Z,21.36
2022-08-22T13:22:17.236Z,21.25
2022-08-22T13:25:25.495Z,21.07
2022-08-22T13:28:36.206Z,21.12
2022-08-22T13:31:42.396Z,21.03
2022-08-22T13:34:52.191Z,20.91
2022-08-22T13:38:12.190Z,20.85
2022-08-22T13:41:31.505Z,20.58
2022-08-22T13:44:45.299Z,20.33
2022-08-22T13:47:57.788Z,20.26
2022-08-22T13:51:09.986Z,20.13
2022-08-22T13:54:15.389Z,20.09
2022-08-22T13:57:24.632Z,20.04
2022-08-22T14:01:14.094Z,19.95
2022-08-22T14:04:36.422Z,19.95
2022-08-22T14:08:02.995Z,19.83
2022-08-22T14:11:25.423Z,19.70
2022-08-22T14:14:33.586Z,19.64
2022-08-22T14:17:48.885Z,19.55
2022-08-22T14:20:52.342Z,19.48
2022-08-22T14:24:12.262Z,19.43
2022-08-22T14:27:27.082Z,19.42
2022-08-22T14:30:54.638Z,19.39
2022-08-22T14:34:10.765Z,19.33
2022-08-22T14:37:29.119Z,19.24
2022-08-22T14:40:36.680Z,19.11
2022-08-22T14:43:59.779Z,19.10
2022-08-22T14:47:15.852Z,19.01
2022-08-22T14:50:55.959Z,18.98
2022-08-22T14:54:21.064Z,18.95
2022-08-22T14:57:26.034Z,18.93
2022-08-22T15:00:41.864Z,18.93
2022-08-22T15:04:10.277Z,18.94
2022-08-22T15:07:23.977Z,18.94
2022-08-22T15:10:33.373Z,18.86
2022-08-22T15:13:41.057Z,18.81
2022-08-22T15:16:53.726Z,18.81
2022-08-22T15:20:11.208Z,18.74
2022-08-22T15:23:23.537Z,18.68
2022-08-22T15:26:32.998Z,18.62
2022-08-22T15:29:53.036Z,18.58
2022-08-22T15:33:27.866Z,18.49
2022-08-22T15:36:32.748Z,18.48
2022-08-22T15:39:38.317Z,18.48
2022-08-22T15:42:50.265Z,18.45
2022-08-22T15:46:18.279Z,18.42
2022-08-22T15:49:21.430Z,18.33
2022-08-22T15:52:59.160Z,18.27
2022-08-22T15:56:26.105Z,18.29
2022-08-22T15:59:56.751Z,18.22
2022-08-22T16:03:37.168Z,18.19
2022-08-22T16:06:56.085Z,18.16
2022-08-22T16:10:00.456Z,18.12
2022-08-22T16:13:09.383Z,18.11
2022-08-22T16:16:26.546Z,18.13
2022-08-22T16:19:32.454Z,18.05
2022-08-22T16:22:59.059Z,17.84
2022-08-22T16:26:03.045Z,17.89
2022-08-22T16:29:17.982Z,17.79
2022-08-22T16:32:28.205Z,17.73
2022-08-22T16:36:08.150Z,17.74
2022-08-22T16:39:22.596Z,17.74
2022-08-22T16:42:37.976Z,17.69
2022-08-22T16:45:45.598Z,17.68
2022-08-22T16:48:49.858Z,17.70
2022-08-22T16:52:23.689Z,17.65
2022-08-22T16:55:36.136Z,17.61
2022-08-22T16:59:01.015Z,17.58
2022-08-22T17:02:29.718Z,17.51
2022-08-22T17:05:47.758Z,17.47
2022-08-22T17:09:09.575Z,17.46
2022-08-22T17:12:39.903Z,17.47
2022-08-22T17:16:18.566Z,17.42
2022-08-22T17:19:39.780Z,17.42
2022-08-22T17:22:51.573Z,17.48
2022-08-22T17:26:07.122Z,17.40
2022-08-22T17:29:35.794Z,17.36
2022-08-22T17:33:00.217Z,17.24
2022-08-22T17:36:30.842Z,17.21
2022-08-22T17:40:15.770Z,17.20
2022-08-22T17:43:49.311Z,17.19
2022-08-22T17:46:57.907Z,17.21
2022-08-22T17:50:10.992Z,17.23
2022-08-22T17:53:32.468Z,17.30
2022-08-22T17:57:00.296Z,17.33
2022-08-22T18:00:18.203Z,17.34
2022-08-22T18:03:24.244Z,17.34
2022-08-22T18:06:33.854Z,17.35
2022-08-22T18:09:47.003Z,17.45
2022-08-22T18:13:02.324Z,17.51
2022-08-22T18:16:20.065Z,17.60
2022-08-22T18:19:44.691Z,17.64
2022-08-22T18:22:56.154Z,17.72
2022-08-22T18:26:14.011Z,17.68
2022-08-22T18:29:25.567Z,17.60
2022-08-22T18:32:36.159Z,17.58
2022-08-22T18:35:44.898Z,17.53
2022-08-22T18:39:17.071Z,17.50
2022-08-22T18:42:52.870Z,17.53
2022-08-22T18:46:03.258Z,17.58
2022-08-22T18:49:15.905Z,17.72
2022-08-22T18:52:32.152Z,17.64
2022-08-22T18:55:48.180Z,17.71
2022-08-22T18:59:05.311Z,17.91
2022-08-22T19:02:22.588Z,17.82
2022-08-22T19:06:06.408Z,17.73
2022-08-22T19:09:24.616Z,17.82
2022-08-22T19:12:49.551Z,17.68
2022-08-22T19:16:16.288Z,17.82
2022-08-22T19:19:57.685Z,17.67
2022-08-22T19:23:41.007Z,17.73
2022-08-22T19:26:48.542Z,17.62
2022-08-22T19:29:55.772Z,17.64
2022-08-22T19:33:05.284Z,17.70
2022-08-22T19:36:10.665Z,17.68
2022-08-22T19:39:41.455Z,17.64
2022-08-22T19:42:50.269Z,17.69
2022-08-22T19:45:53.729Z,17.73
2022-08-22T19:48:59.783Z,17.84
2022-08-22T19:52:23.707Z,17.73
2022-08-22T19:55:37.242Z,17.81
2022-08-22T19:59:27.185Z,17.77
2022-08-22T20:02:49.873Z,17.80
2022-08-22T20:06:43.644Z,17.82
2022-08-22T20:10:11.173Z,17.85
2022-08-22T20:13:30.653Z,17.86
2022-08-22T20:17:08.636Z,17.77
2022-08-22T20:20:28.004Z,17.85
2022-08-22T20:23:37.484Z,17.80
2022-08-22T20:26:57.570Z,17.95
2022-08-22T20:30:11.300Z,17.96
2022-08-22T20:33:27.427Z,17.95
2022-08-22T20:36:31.013Z,17.96
2022-08-22T20:40:05.609Z,17.96
2022-08-22T20:43:21.160Z,17.96
2022-08-22T20:46:46.116Z,18.01
2022-08-22T20:49:53.401Z,18.09
2022-08-22T20:53:12.414Z,18.11
2022-08-22T20:56:15.591Z,18.07
2022-08-22T20:59:27.705Z,18.06
2022-08-22T21:03:07.736Z,18.16
2022-08-22T21:06:15.210Z,18.06
2022-08-22T21:09:38.968Z,18.11
2022-08-22T21:12:42.252Z,18.09
2022-08-22T21:15:49.253Z,17.98
2022-08-22T21:18:54.512Z,17.96
2022-08-22T21:22:14.416Z,17.99
2022-08-22T21:25:17.596Z,17.98
2022-08-22T21:28:37.156Z,17.96
2022-08-22T21:32:04.401Z,18.05
2022-08-22T21:35:24.272Z,17.90
2022-08-22T21:38:28.148Z,17.84
2022-08-22T21:41:47.874Z,18.00
2022-08-22T21:45:03.980Z,18.01
2022-08-22T21:48:33.340Z,18.06
2022-08-22T21:51:42.042Z,18.11
2022-08-22T21:54:44.963Z,17.91
2022-08-22T21:58:35.705Z,17.91
2022-08-22T22:01:42.591Z,17.95
2022-08-22T22:04:45.815Z,17.95
2022-08-22T22:07:51.046Z,17.95
2022-08-22T22:10:58.955Z,17.94
2022-08-22T22:14:02.097Z,17.92
2022-08-22T22:17:05.145Z,17.99
2022-08-22T22:20:09.287Z,17.98
2022-08-22T22:23:12.489Z,18.07
2022-08-22T22:26:15.404Z,18.08
2022-08-22T22:29:18.516Z,18.13
2022-08-22T22:32:21.448Z,18.07
2022-08-22T22:35:24.776Z,17.88
2022-08-22T22:38:27.458Z,17.82
2022-08-22T22:41:30.379Z,17.89
2022-08-22T22:44:33.715Z,17.82
2022-08-22T22:47:37.092Z,17.89
2022-08-22T22:50:43.400Z,17.90
2022-08-22T22:53:46.810Z,17.92
2022-08-22T22:56:49.693Z,17.79
2022-08-22T22:59:56.575Z,17.81
2022-08-22T23:03:02.047Z,17.75
2022-08-22T23:06:10.572Z,17.70
2022-08-22T23:09:13.192Z,17.69
2022-08-22T23:12:17.497Z,17.74
2022-08-22T23:15:20.285Z,17.78
2022-08-22T23:18:30.343Z,17.77
2022-08-22T23:21:33.368Z,17.77
2022-08-22T23:24:39.132Z,17.92
2022-08-22T23:27:41.992Z,17.86
2022-08-22T23:30:44.928Z,17.87
2022-08-22T23:33:47.939Z,17.76
2022-08-22T23:36:53.833Z,17.68
2022-08-22T23:39:56.699Z,17.73
2022-08-22T23:42:59.822Z,17.65
2022-08-22T23:46:02.817Z,17.65
2022-08-22T23:49:06.669Z,17.75
2022-08-22T23:52:11.557Z,17.83
2022-08-22T23:55:14.578Z,17.86
2022-08-22T23:58:18.429Z,17.86
